sensor_id;sensor_type;location;lat;lon;timestamp;temperature;humidity
24374;DHT22;12498;50.880;12.096;2024-01-15T00:00:10;1.20;99.90
24374;DHT22;12498;50.880;12.096;2024-01-15T00:02:35;1.20;99.90
24374;DHT22;12498;50.880;12.096;2024-01-15T00:05:01;1.20;99.90
24374;DHT22;12498;50.880;12.096;2024-01-15T00:07:26;1.20;99.90
24374;DHT22;12498;50.880;12.096;2024-01-15T00:09:52;1.20;99.90
24374;DHT22;12498;50.880;12.096;2024-01-15T00:12:17;1.20;99.90
24374;DHT22;12498;50.880;12.096;2024-01-15T00:14:43;1.20;76.60
24374;DHT22;12498;50.880;12.096;2024-01-15T00:17:08;1.20;91.80
24374;DHT22;12498;50.880;12.096;2024-01-15T00:19:34;1.20;61.50
24374;DHT22;12498;50.880;12.096;2024-01-15T00:21:59;1.20;47.40
24374;DHT22;12498;50.880;12.096;2024-01-15T00:24:25;1.20;1.20
24374;DHT22;12498;50.880;12.096;2024-01-15T00:26:50;1.10;2.20
24374;DHT22;12498;50.880;12.096;2024-01-15T00:29:16;1.20;1.00
24374;DHT22;12498;50.880;12.096;2024-01-15T00:31:42;1.20;4.20
24374;DHT22;12498;50.880;12.096;2024-01-15T00:34:07;1.20;17.80
24374;DHT22;12498;50.880;12.096;2024-01-15T00:36:33;1.20;46.70
24374;DHT22;12498;50.880;12.096;2024-01-15T00:38:58;1.10;98.50
24374;DHT22;12498;50.880;12.096;2024-01-15T00:41:23;1.10;99.90
24374;DHT22;12498;50.880;12.096;2024-01-15T00:43:49;1.10;93.60
24374;DHT22;12498;50.880;12.096;2024-01-15T00:46:15;1.10;99.90
24374;DHT22;12498;50.880;12.096;2024-01-15T00:48:40;1.00;99.90
24374;DHT22;12498;50.880;12.096;2024-01-15T00:51:06;1.10;73.50
24374;DHT22;12498;50.880;12.096;2024-01-15T00:53:31;1.10;87.60
24374;DHT22;12498;50.880;12.096;2024-01-15T00:55:57;1.10;71.80
24374;DHT22;12498;50.880;12.096;2024-01-15T00:58:23;1.00;29.60
24374;DHT22;12498;50.880;12.096;2024-01-15T01:00:48;1.10;38.60
24374;DHT22;12498;50.880;12.096;2024-01-15T01:03:14;1.10;24.70
24374;DHT22;12498;50.880;12.096;2024-01-15T01:05:39;1.00;12.50
24374;DHT22;12498;50.880;12.096;2024-01-15T01:08:05;1.10;1.00
24374;DHT22;12498;50.880;12.096;2024-01-15T01:10:30;1.00;1.00
24374;DHT22;12498;50.880;12.096;2024-01-15T01:12:56;1.00;1.00
24374;DHT22;12498;50.880;12.096;2024-01-15T01:15:21;1.00;1.00
24374;DHT22;12498;50.880;12.096;2024-01-15T01:17:47;1.00;1.00
24374;DHT22;12498;50.880;12.096;2024-01-15T01:20:13;1.00;1.00
24374;DHT22;12498;50.880;12.096;2024-01-15T01:22:40;0.90;1.00
24374;DHT22;12498;50.880;12.096;2024-01-15T01:25:06;0.90;1.00
24374;DHT22;12498;50.880;12.096;2024-01-15T01:27:31;0.90;1.00
24374;DHT22;12498;50.880;12.096;2024-01-15T01:29:57;0.90;1.00
24374;DHT22;12498;50.880;12.096;2024-01-15T01:32:22;0.90;1.00
24374;DHT22;12498;50.880;12.096;2024-01-15T01:34:48;0.90;1.00
24374;DHT22;12498;50.880;12.096;2024-01-15T01:37:13;0.80;1.00
24374;DHT22;12498;50.880;12.096;2024-01-15T01:39:39;0.80;1.00
24374;DHT22;12498;50.880;12.096;2024-01-15T01:42:05;3.40;1.00
24374;DHT22;12498;50.880;12.096;2024-01-15T01:44:30;0.80;1.00
24374;DHT22;12498;50.880;12.096;2024-01-15T01:46:56;0.80;1.00
24374;DHT22;12498;50.880;12.096;2024-01-15T01:49:22;2.30;1.00
24374;DHT22;12498;50.880;12.096;2024-01-15T01:51:48;0.90;1.00
24374;DHT22;12498;50.880;12.096;2024-01-15T01:54:14;0.80;1.00
24374;DHT22;12498;50.880;12.096;2024-01-15T01:56:40;0.80;1.00
24374;DHT22;12498;50.880;12.096;2024-01-15T01:59:06;0.90;1.00
24374;DHT22;12498;50.880;12.096;2024-01-15T02:01:33;1.00;1.00
24374;DHT22;12498;50.880;12.096;2024-01-15T02:03:58;0.80;1.00
24374;DHT22;12498;50.880;12.096;2024-01-15T02:08:50;0.80;1.00
24374;DHT22;12498;50.880;12.096;2024-01-15T02:11:15;0.90;1.00
24374;DHT22;12498;50.880;12.096;2024-01-15T02:13:41;0.80;1.00
24374;DHT22;12498;50.880;12.096;2024-01-15T02:16:07;0.80;1.00
24374;DHT22;12498;50.880;12.096;2024-01-15T02:18:39;0.80;1.00
24374;DHT22;12498;50.880;12.096;2024-01-15T02:21:05;0.90;1.00
24374;DHT22;12498;50.880;12.096;2024-01-15T02:23:31;0.80;1.00
24374;DHT22;12498;50.880;12.096;2024-01-15T02:25:56;1.20;1.00
24374;DHT22;12498;50.880;12.096;2024-01-15T02:28:22;0.80;1.00
24374;DHT22;12498;50.880;12.096;2024-01-15T02:30:47;0.80;1.00
24374;DHT22;12498;50.880;12.096;2024-01-15T02:33:13;0.80;1.00
24374;DHT22;12498;50.880;12.096;2024-01-15T02:35:38;0.70;1.00
24374;DHT22;12498;50.880;12.096;2024-01-15T02:38:04;0.70;1.00
24374;DHT22;12498;50.880;12.096;2024-01-15T02:40:30;0.60;26.80
24374;DHT22;12498;50.880;12.096;2024-01-15T02:42:55;0.50;99.90
24374;DHT22;12498;50.880;12.096;2024-01-15T02:45:21;0.40;99.90
24374;DHT22;12498;50.880;12.096;2024-01-15T02:47:47;0.30;1.00
24374;DHT22;12498;50.880;12.096;2024-01-15T02:50:13;0.30;1.00
24374;DHT22;12498;50.880;12.096;2024-01-15T02:52:38;0.60;99.90
24374;DHT22;12498;50.880;12.096;2024-01-15T02:55:04;0.30;1.00
24374;DHT22;12498;50.880;12.096;2024-01-15T02:57:29;0.30;1.00
24374;DHT22;12498;50.880;12.096;2024-01-15T02:59:55;0.30;99.90
24374;DHT22;12498;50.880;12.096;2024-01-15T03:02:20;0.40;99.90
24374;DHT22;12498;50.880;12.096;2024-01-15T03:04:46;0.40;99.90
24374;DHT22;12498;50.880;12.096;2024-01-15T03:07:12;0.30;99.90
24374;DHT22;12498;50.880;12.096;2024-01-15T03:09:37;0.40;99.90
24374;DHT22;12498;50.880;12.096;2024-01-15T03:12:03;0.30;99.90
24374;DHT22;12498;50.880;12.096;2024-01-15T03:14:28;0.40;99.90
24374;DHT22;12498;50.880;12.096;2024-01-15T03:16:54;0.40;99.90
24374;DHT22;12498;50.880;12.096;2024-01-15T03:19:19;0.40;96.40
24374;DHT22;12498;50.880;12.096;2024-01-15T03:21:45;0.40;81.50
24374;DHT22;12498;50.880;12.096;2024-01-15T03:24:10;0.40;29.20
24374;DHT22;12498;50.880;12.096;2024-01-15T03:26:36;0.40;1.00
24374;DHT22;12498;50.880;12.096;2024-01-15T03:29:01;0.40;8.00
24374;DHT22;12498;50.880;12.096;2024-01-15T03:31:27;0.40;7.50
24374;DHT22;12498;50.880;12.096;2024-01-15T03:33:52;0.30;3.90
24374;DHT22;12498;50.880;12.096;2024-01-15T03:36:18;0.40;1.30
24374;DHT22;12498;50.880;12.096;2024-01-15T03:38:43;0.40;24.00
24374;DHT22;12498;50.880;12.096;2024-01-15T03:43:35;0.40;1.00
24374;DHT22;12498;50.880;12.096;2024-01-15T03:46:00;0.30;1.00
24374;DHT22;12498;50.880;12.096;2024-01-15T03:48:27;0.30;1.00
24374;DHT22;12498;50.880;12.096;2024-01-15T03:50:52;0.30;1.00
24374;DHT22;12498;50.880;12.096;2024-01-15T03:53:18;0.30;1.00
24374;DHT22;12498;50.880;12.096;2024-01-15T03:55:44;0.30;1.00
24374;DHT22;12498;50.880;12.096;2024-01-15T03:58:09;0.30;1.00
24374;DHT22;12498;50.880;12.096;2024-01-15T04:00:35;0.30;1.00
24374;DHT22;12498;50.880;12.096;2024-01-15T04:03:00;0.30;1.00
24374;DHT22;12498;50.880;12.096;2024-01-15T04:05:26;0.40;1.00
24374;DHT22;12498;50.880;12.096;2024-01-15T04:07:51;0.30;1.00
24374;DHT22;12498;50.880;12.096;2024-01-15T04:10:17;0.30;1.00
24374;DHT22;12498;50.880;12.096;2024-01-15T04:12:42;0.30;1.00
24374;DHT22;12498;50.880;12.096;2024-01-15T04:15:08;0.30;1.00
24374;DHT22;12498;50.880;12.096;2024-01-15T04:17:33;0.30;1.00
24374;DHT22;12498;50.880;12.096;2024-01-15T04:19:59;0.30;1.00
24374;DHT22;12498;50.880;12.096;2024-01-15T04:22:25;0.30;1.00
24374;DHT22;12498;50.880;12.096;2024-01-15T04:24:50;0.30;1.00
24374;DHT22;12498;50.880;12.096;2024-01-15T04:27:16;0.30;1.00
24374;DHT22;12498;50.880;12.096;2024-01-15T04:29:41;0.30;1.00
24374;DHT22;12498;50.880;12.096;2024-01-15T04:32:07;0.30;1.00
24374;DHT22;12498;50.880;12.096;2024-01-15T04:34:32;0.30;1.00
24374;DHT22;12498;50.880;12.096;2024-01-15T04:36:58;0.40;1.00
24374;DHT22;12498;50.880;12.096;2024-01-15T04:39:23;0.40;1.00
24374;DHT22;12498;50.880;12.096;2024-01-15T04:41:49;0.30;1.00
24374;DHT22;12498;50.880;12.096;2024-01-15T04:44:14;0.40;1.00
24374;DHT22;12498;50.880;12.096;2024-01-15T04:46:40;0.40;1.00
24374;DHT22;12498;50.880;12.096;2024-01-15T04:49:05;0.40;1.00
24374;DHT22;12498;50.880;12.096;2024-01-15T04:51:31;0.40;1.00
24374;DHT22;12498;50.880;12.096;2024-01-15T04:53:56;0.50;1.00
24374;DHT22;12498;50.880;12.096;2024-01-15T04:56:22;1.20;1.00
24374;DHT22;12498;50.880;12.096;2024-01-15T04:58:47;0.40;1.00
24374;DHT22;12498;50.880;12.096;2024-01-15T05:01:15;0.40;1.00
24374;DHT22;12498;50.880;12.096;2024-01-15T05:03:40;0.50;1.00
24374;DHT22;12498;50.880;12.096;2024-01-15T05:06:06;0.50;1.00
24374;DHT22;12498;50.880;12.096;2024-01-15T05:08:32;0.50;99.90
24374;DHT22;12498;50.880;12.096;2024-01-15T05:10:57;0.40;99.90
24374;DHT22;12498;50.880;12.096;2024-01-15T05:13:23;0.50;99.90
24374;DHT22;12498;50.880;12.096;2024-01-15T05:15:48;0.40;99.90
24374;DHT22;12498;50.880;12.096;2024-01-15T05:18:14;0.50;99.90
24374;DHT22;12498;50.880;12.096;2024-01-15T05:20:39;0.50;99.90
24374;DHT22;12498;50.880;12.096;2024-01-15T05:23:05;0.40;99.90
24374;DHT22;12498;50.880;12.096;2024-01-15T05:25:30;0.80;99.90
24374;DHT22;12498;50.880;12.096;2024-01-15T05:27:56;0.40;99.90
24374;DHT22;12498;50.880;12.096;2024-01-15T05:30:21;0.40;99.90
24374;DHT22;12498;50.880;12.096;2024-01-15T05:32:47;0.40;99.90
24374;DHT22;12498;50.880;12.096;2024-01-15T05:35:12;0.40;99.90
24374;DHT22;12498;50.880;12.096;2024-01-15T05:37:40;0.50;99.90
24374;DHT22;12498;50.880;12.096;2024-01-15T05:40:05;0.50;99.90
24374;DHT22;12498;50.880;12.096;2024-01-15T05:42:31;0.50;99.90
24374;DHT22;12498;50.880;12.096;2024-01-15T05:44:57;0.50;99.90
24374;DHT22;12498;50.880;12.096;2024-01-15T05:47:24;0.50;99.90
24374;DHT22;12498;50.880;12.096;2024-01-15T05:49:50;0.40;99.90
24374;DHT22;12498;50.880;12.096;2024-01-15T05:52:15;0.30;99.90
24374;DHT22;12498;50.880;12.096;2024-01-15T05:54:41;0.30;99.90
24374;DHT22;12498;50.880;12.096;2024-01-15T05:57:07;0.30;99.90
24374;DHT22;12498;50.880;12.096;2024-01-15T05:59:32;0.30;99.90
24374;DHT22;12498;50.880;12.096;2024-01-15T06:01:59;0.30;99.90
24374;DHT22;12498;50.880;12.096;2024-01-15T06:04:25;0.20;99.90
24374;DHT22;12498;50.880;12.096;2024-01-15T06:06:50;0.30;99.90
24374;DHT22;12498;50.880;12.096;2024-01-15T06:09:15;0.30;99.90
24374;DHT22;12498;50.880;12.096;2024-01-15T06:11:41;0.30;99.90
24374;DHT22;12498;50.880;12.096;2024-01-15T06:14:07;0.20;99.90
24374;DHT22;12498;50.880;12.096;2024-01-15T06:16:32;0.20;99.90
24374;DHT22;12498;50.880;12.096;2024-01-15T06:18:58;0.20;99.90
24374;DHT22;12498;50.880;12.096;2024-01-15T06:21:23;0.30;99.90
24374;DHT22;12498;50.880;12.096;2024-01-15T06:23:49;0.30;99.90
24374;DHT22;12498;50.880;12.096;2024-01-15T06:26:14;0.30;99.90
24374;DHT22;12498;50.880;12.096;2024-01-15T06:28:40;0.30;99.90
24374;DHT22;12498;50.880;12.096;2024-01-15T06:31:06;0.30;99.90
24374;DHT22;12498;50.880;12.096;2024-01-15T06:33:32;0.30;99.90
24374;DHT22;12498;50.880;12.096;2024-01-15T06:35:57;0.30;99.90
24374;DHT22;12498;50.880;12.096;2024-01-15T06:38:23;0.30;99.90
24374;DHT22;12498;50.880;12.096;2024-01-15T06:40:48;0.30;99.90
24374;DHT22;12498;50.880;12.096;2024-01-15T06:43:14;0.20;99.90
24374;DHT22;12498;50.880;12.096;2024-01-15T06:45:43;0.20;99.90
24374;DHT22;12498;50.880;12.096;2024-01-15T06:48:09;0.20;99.90
24374;DHT22;12498;50.880;12.096;2024-01-15T06:50:34;0.20;99.90
24374;DHT22;12498;50.880;12.096;2024-01-15T06:53:00;0.10;99.90
24374;DHT22;12498;50.880;12.096;2024-01-15T06:55:25;0.10;99.90
24374;DHT22;12498;50.880;12.096;2024-01-15T06:57:51;0.10;99.90
24374;DHT22;12498;50.880;12.096;2024-01-15T07:00:17;0.00;99.90
24374;DHT22;12498;50.880;12.096;2024-01-15T07:02:45;0.10;99.90
24374;DHT22;12498;50.880;12.096;2024-01-15T07:05:10;0.00;99.90
24374;DHT22;12498;50.880;12.096;2024-01-15T07:07:36;0.00;99.90
24374;DHT22;12498;50.880;12.096;2024-01-15T07:10:02;0.10;99.90
24374;DHT22;12498;50.880;12.096;2024-01-15T07:12:29;0.10;99.90
24374;DHT22;12498;50.880;12.096;2024-01-15T07:14:55;0.40;99.90
24374;DHT22;12498;50.880;12.096;2024-01-15T07:17:21;0.10;99.90
24374;DHT22;12498;50.880;12.096;2024-01-15T07:19:46;0.40;99.90
24374;DHT22;12498;50.880;12.096;2024-01-15T07:22:12;0.10;99.90
24374;DHT22;12498;50.880;12.096;2024-01-15T07:24:37;0.20;99.90
24374;DHT22;12498;50.880;12.096;2024-01-15T07:27:03;0.20;99.90
24374;DHT22;12498;50.880;12.096;2024-01-15T07:29:30;0.20;99.90
24374;DHT22;12498;50.880;12.096;2024-01-15T07:31:55;0.30;99.90
24374;DHT22;12498;50.880;12.096;2024-01-15T07:34:21;0.20;99.60
24374;DHT22;12498;50.880;12.096;2024-01-15T07:39:13;0.30;93.10
24374;DHT22;12498;50.880;12.096;2024-01-15T07:41:39;0.30;71.60
24374;DHT22;12498;50.880;12.096;2024-01-15T07:44:04;0.30;40.40
24374;DHT22;12498;50.880;12.096;2024-01-15T07:46:30;0.30;56.60
24374;DHT22;12498;50.880;12.096;2024-01-15T07:48:55;0.40;39.60
24374;DHT22;12498;50.880;12.096;2024-01-15T07:51:25;0.40;25.30
24374;DHT22;12498;50.880;12.096;2024-01-15T07:53:54;0.40;1.30
24374;DHT22;12498;50.880;12.096;2024-01-15T07:56:21;0.40;5.70
24374;DHT22;12498;50.880;12.096;2024-01-15T07:58:46;0.40;11.00
24374;DHT22;12498;50.880;12.096;2024-01-15T08:01:12;3.50;17.80
24374;DHT22;12498;50.880;12.096;2024-01-15T08:03:38;0.50;1.00
24374;DHT22;12498;50.880;12.096;2024-01-15T08:06:03;0.60;1.00
24374;DHT22;12498;50.880;12.096;2024-01-15T08:08:29;0.50;1.00
24374;DHT22;12498;50.880;12.096;2024-01-15T08:10:54;0.60;1.00
24374;DHT22;12498;50.880;12.096;2024-01-15T08:13:20;0.70;1.00
24374;DHT22;12498;50.880;12.096;2024-01-15T08:15:46;0.70;1.00
24374;DHT22;12498;50.880;12.096;2024-01-15T08:18:11;0.70;1.00
24374;DHT22;12498;50.880;12.096;2024-01-15T08:20:37;0.70;1.00
24374;DHT22;12498;50.880;12.096;2024-01-15T08:23:03;0.70;1.00
24374;DHT22;12498;50.880;12.096;2024-01-15T08:25:28;0.70;1.00
24374;DHT22;12498;50.880;12.096;2024-01-15T08:27:54;0.70;1.00
24374;DHT22;12498;50.880;12.096;2024-01-15T08:30:19;0.60;1.00
24374;DHT22;12498;50.880;12.096;2024-01-15T08:32:46;0.60;1.00
24374;DHT22;12498;50.880;12.096;2024-01-15T08:35:11;0.60;1.00
24374;DHT22;12498;50.880;12.096;2024-01-15T08:37:38;0.70;1.00
24374;DHT22;12498;50.880;12.096;2024-01-15T08:40:03;0.70;1.00
24374;DHT22;12498;50.880;12.096;2024-01-15T08:42:29;0.70;1.00
24374;DHT22;12498;50.880;12.096;2024-01-15T08:44:54;0.60;1.00
24374;DHT22;12498;50.880;12.096;2024-01-15T08:47:20;0.60;1.00
24374;DHT22;12498;50.880;12.096;2024-01-15T08:49:46;0.70;1.00
24374;DHT22;12498;50.880;12.096;2024-01-15T08:52:11;0.70;1.00
24374;DHT22;12498;50.880;12.096;2024-01-15T08:54:37;0.80;1.00
24374;DHT22;12498;50.880;12.096;2024-01-15T08:57:03;0.80;1.00
24374;DHT22;12498;50.880;12.096;2024-01-15T08:59:28;0.90;1.00
24374;DHT22;12498;50.880;12.096;2024-01-15T09:01:54;0.90;99.90
24374;DHT22;12498;50.880;12.096;2024-01-15T09:04:22;0.90;99.90
24374;DHT22;12498;50.880;12.096;2024-01-15T09:06:48;1.00;99.90
24374;DHT22;12498;50.880;12.096;2024-01-15T09:09:13;1.00;99.90
24374;DHT22;12498;50.880;12.096;2024-01-15T09:11:42;1.00;99.90
24374;DHT22;12498;50.880;12.096;2024-01-15T09:14:07;1.00;99.90
24374;DHT22;12498;50.880;12.096;2024-01-15T09:16:33;1.00;99.90
24374;DHT22;12498;50.880;12.096;2024-01-15T09:19:01;1.10;99.90
24374;DHT22;12498;50.880;12.096;2024-01-15T09:21:26;1.10;99.90
24374;DHT22;12498;50.880;12.096;2024-01-15T09:23:52;1.00;99.90
24374;DHT22;12498;50.880;12.096;2024-01-15T09:26:17;1.20;99.90
24374;DHT22;12498;50.880;12.096;2024-01-15T09:28:43;1.20;99.90
24374;DHT22;12498;50.880;12.096;2024-01-15T09:31:08;1.30;99.90
24374;DHT22;12498;50.880;12.096;2024-01-15T09:33:34;1.30;99.90
24374;DHT22;12498;50.880;12.096;2024-01-15T09:36:03;1.20;99.90
24374;DHT22;12498;50.880;12.096;2024-01-15T09:38:29;1.00;99.90
24374;DHT22;12498;50.880;12.096;2024-01-15T09:40:55;1.10;99.90
24374;DHT22;12498;50.880;12.096;2024-01-15T09:43:20;1.10;99.90
24374;DHT22;12498;50.880;12.096;2024-01-15T09:45:46;1.00;99.90
24374;DHT22;12498;50.880;12.096;2024-01-15T09:48:12;1.00;99.90
24374;DHT22;12498;50.880;12.096;2024-01-15T09:50:38;1.00;99.90
24374;DHT22;12498;50.880;12.096;2024-01-15T09:53:04;1.00;99.90
24374;DHT22;12498;50.880;12.096;2024-01-15T09:55:30;1.10;99.90
24374;DHT22;12498;50.880;12.096;2024-01-15T09:57:57;1.10;99.90
24374;DHT22;12498;50.880;12.096;2024-01-15T10:00:25;1.30;99.90
24374;DHT22;12498;50.880;12.096;2024-01-15T10:02:51;1.30;99.90
24374;DHT22;12498;50.880;12.096;2024-01-15T10:05:16;1.40;99.90
24374;DHT22;12498;50.880;12.096;2024-01-15T10:07:42;1.30;99.90
24374;DHT22;12498;50.880;12.096;2024-01-15T10:10:10;1.20;99.90
24374;DHT22;12498;50.880;12.096;2024-01-15T10:12:35;1.20;99.90
24374;DHT22;12498;50.880;12.096;2024-01-15T10:15:01;1.20;99.90
24374;DHT22;12498;50.880;12.096;2024-01-15T10:17:26;1.20;99.90
24374;DHT22;12498;50.880;12.096;2024-01-15T10:19:53;1.20;99.90
24374;DHT22;12498;50.880;12.096;2024-01-15T10:22:18;1.30;99.90
24374;DHT22;12498;50.880;12.096;2024-01-15T10:24:44;1.30;99.90
24374;DHT22;12498;50.880;12.096;2024-01-15T10:27:10;1.30;99.90
24374;DHT22;12498;50.880;12.096;2024-01-15T10:29:36;1.40;99.90
24374;DHT22;12498;50.880;12.096;2024-01-15T10:32:02;1.40;99.90
24374;DHT22;12498;50.880;12.096;2024-01-15T10:34:28;1.50;99.90
24374;DHT22;12498;50.880;12.096;2024-01-15T10:36:53;1.40;99.90
24374;DHT22;12498;50.880;12.096;2024-01-15T10:39:21;1.50;99.90
24374;DHT22;12498;50.880;12.096;2024-01-15T10:41:46;1.50;99.90
24374;DHT22;12498;50.880;12.096;2024-01-15T10:44:12;1.50;99.90
24374;DHT22;12498;50.880;12.096;2024-01-15T10:46:37;1.50;99.90
24374;DHT22;12498;50.880;12.096;2024-01-15T10:49:04;1.50;99.90
24374;DHT22;12498;50.880;12.096;2024-01-15T10:51:29;1.60;99.90
24374;DHT22;12498;50.880;12.096;2024-01-15T10:53:56;1.60;99.90
24374;DHT22;12498;50.880;12.096;2024-01-15T10:56:22;1.60;99.90
24374;DHT22;12498;50.880;12.096;2024-01-15T10:58:49;1.60;99.90
24374;DHT22;12498;50.880;12.096;2024-01-15T11:01:15;1.70;99.90
24374;DHT22;12498;50.880;12.096;2024-01-15T11:03:41;1.70;99.90
24374;DHT22;12498;50.880;12.096;2024-01-15T11:06:17;1.80;99.90
24374;DHT22;12498;50.880;12.096;2024-01-15T11:08:48;1.90;99.90
24374;DHT22;12498;50.880;12.096;2024-01-15T11:11:17;1.90;99.90
24374;DHT22;12498;50.880;12.096;2024-01-15T11:13:43;1.90;99.90
24374;DHT22;12498;50.880;12.096;2024-01-15T11:16:10;1.80;99.90
24374;DHT22;12498;50.880;12.096;2024-01-15T11:18:37;1.80;99.90
24374;DHT22;12498;50.880;12.096;2024-01-15T11:23:47;1.80;99.90
24374;DHT22;12498;50.880;12.096;2024-01-15T11:28:57;1.80;99.90
24374;DHT22;12498;50.880;12.096;2024-01-15T11:31:28;1.90;99.90
24374;DHT22;12498;50.880;12.096;2024-01-15T11:33:54;2.00;99.90
24374;DHT22;12498;50.880;12.096;2024-01-15T11:36:20;2.10;99.90
24374;DHT22;12498;50.880;12.096;2024-01-15T11:38:46;2.10;99.90
24374;DHT22;12498;50.880;12.096;2024-01-15T11:41:15;2.20;99.90
24374;DHT22;12498;50.880;12.096;2024-01-15T11:43:43;2.20;99.90
24374;DHT22;12498;50.880;12.096;2024-01-15T11:46:10;2.30;99.90
24374;DHT22;12498;50.880;12.096;2024-01-15T11:48:42;2.20;99.90
24374;DHT22;12498;50.880;12.096;2024-01-15T11:51:08;2.20;99.90
24374;DHT22;12498;50.880;12.096;2024-01-15T11:53:56;2.30;99.90
24374;DHT22;12498;50.880;12.096;2024-01-15T11:56:21;2.30;99.90
24374;DHT22;12498;50.880;12.096;2024-01-15T11:58:47;2.30;99.90
24374;DHT22;12498;50.880;12.096;2024-01-15T12:01:13;2.40;99.90
24374;DHT22;12498;50.880;12.096;2024-01-15T12:03:39;2.50;99.90
24374;DHT22;12498;50.880;12.096;2024-01-15T12:06:08;2.60;99.90
24374;DHT22;12498;50.880;12.096;2024-01-15T12:08:34;2.70;99.90
24374;DHT22;12498;50.880;12.096;2024-01-15T12:11:00;2.60;99.90
24374;DHT22;12498;50.880;12.096;2024-01-15T12:13:26;2.70;99.90
24374;DHT22;12498;50.880;12.096;2024-01-15T12:15:54;2.70;99.90
24374;DHT22;12498;50.880;12.096;2024-01-15T12:20:45;2.70;99.90
24374;DHT22;12498;50.880;12.096;2024-01-15T12:23:14;2.70;99.90
24374;DHT22;12498;50.880;12.096;2024-01-15T12:25:40;2.70;99.90
24374;DHT22;12498;50.880;12.096;2024-01-15T12:28:06;2.80;99.90
24374;DHT22;12498;50.880;12.096;2024-01-15T12:30:32;2.80;99.90
24374;DHT22;12498;50.880;12.096;2024-01-15T12:32:58;2.80;99.90
24374;DHT22;12498;50.880;12.096;2024-01-15T12:35:26;2.90;99.90
24374;DHT22;12498;50.880;12.096;2024-01-15T12:37:51;3.10;99.90
24374;DHT22;12498;50.880;12.096;2024-01-15T12:40:20;3.00;99.90
24374;DHT22;12498;50.880;12.096;2024-01-15T12:42:46;3.00;99.90
24374;DHT22;12498;50.880;12.096;2024-01-15T12:45:12;3.10;99.90
24374;DHT22;12498;50.880;12.096;2024-01-15T12:47:38;3.20;99.90
24374;DHT22;12498;50.880;12.096;2024-01-15T12:50:06;3.10;99.90
24374;DHT22;12498;50.880;12.096;2024-01-15T12:52:32;3.20;99.90
24374;DHT22;12498;50.880;12.096;2024-01-15T12:54:57;3.10;99.90
24374;DHT22;12498;50.880;12.096;2024-01-15T12:57:23;3.10;99.90
24374;DHT22;12498;50.880;12.096;2024-01-15T12:59:48;3.10;99.90
24374;DHT22;12498;50.880;12.096;2024-01-15T13:04:41;2.90;99.90
24374;DHT22;12498;50.880;12.096;2024-01-15T13:07:07;2.90;99.90
24374;DHT22;12498;50.880;12.096;2024-01-15T13:09:33;2.90;99.90
24374;DHT22;12498;50.880;12.096;2024-01-15T13:14:24;2.80;99.90
24374;DHT22;12498;50.880;12.096;2024-01-15T13:16:50;2.80;99.90
24374;DHT22;12498;50.880;12.096;2024-01-15T13:19:16;2.70;99.90
24374;DHT22;12498;50.880;12.096;2024-01-15T13:21:42;2.80;99.90
24374;DHT22;12498;50.880;12.096;2024-01-15T13:24:08;2.70;99.90
24374;DHT22;12498;50.880;12.096;2024-01-15T13:26:34;2.50;99.90
24374;DHT22;12498;50.880;12.096;2024-01-15T13:29:00;2.50;99.90
24374;DHT22;12498;50.880;12.096;2024-01-15T13:31:26;2.40;99.90
24374;DHT22;12498;50.880;12.096;2024-01-15T13:33:52;2.40;99.90
24374;DHT22;12498;50.880;12.096;2024-01-15T13:36:18;2.40;99.90
24374;DHT22;12498;50.880;12.096;2024-01-15T13:38:43;2.20;99.90
24374;DHT22;12498;50.880;12.096;2024-01-15T13:41:09;2.10;99.90
24374;DHT22;12498;50.880;12.096;2024-01-15T13:43:35;2.00;99.90
24374;DHT22;12498;50.880;12.096;2024-01-15T13:48:30;2.00;99.90
24374;DHT22;12498;50.880;12.096;2024-01-15T13:50:56;2.00;99.90
24374;DHT22;12498;50.880;12.096;2024-01-15T13:53:22;2.00;99.90
24374;DHT22;12498;50.880;12.096;2024-01-15T13:55:47;2.00;99.90
24374;DHT22;12498;50.880;12.096;2024-01-15T13:58:13;1.90;99.90
24374;DHT22;12498;50.880;12.096;2024-01-15T14:00:38;1.90;99.90
24374;DHT22;12498;50.880;12.096;2024-01-15T14:03:04;1.90;99.90
24374;DHT22;12498;50.880;12.096;2024-01-15T14:05:30;2.00;99.90
24374;DHT22;12498;50.880;12.096;2024-01-15T14:07:55;2.00;99.90
24374;DHT22;12498;50.880;12.096;2024-01-15T14:10:21;2.10;99.90
24374;DHT22;12498;50.880;12.096;2024-01-15T14:12:46;2.00;99.90
24374;DHT22;12498;50.880;12.096;2024-01-15T14:15:12;2.00;99.90
24374;DHT22;12498;50.880;12.096;2024-01-15T14:17:38;2.00;99.90
24374;DHT22;12498;50.880;12.096;2024-01-15T14:20:04;2.10;99.90
24374;DHT22;12498;50.880;12.096;2024-01-15T14:22:30;1.90;99.90
24374;DHT22;12498;50.880;12.096;2024-01-15T14:24:56;1.90;99.90
24374;DHT22;12498;50.880;12.096;2024-01-15T14:27:21;1.90;99.90
24374;DHT22;12498;50.880;12.096;2024-01-15T14:29:47;1.90;99.90
24374;DHT22;12498;50.880;12.096;2024-01-15T14:32:12;1.90;99.90
24374;DHT22;12498;50.880;12.096;2024-01-15T14:34:38;2.00;99.90
24374;DHT22;12498;50.880;12.096;2024-01-15T14:37:03;1.90;99.90
24374;DHT22;12498;50.880;12.096;2024-01-15T14:39:29;1.90;99.90
24374;DHT22;12498;50.880;12.096;2024-01-15T14:41:57;1.90;99.90
24374;DHT22;12498;50.880;12.096;2024-01-15T14:44:22;1.80;99.90
24374;DHT22;12498;50.880;12.096;2024-01-15T14:46:48;1.70;99.90
24374;DHT22;12498;50.880;12.096;2024-01-15T14:49:13;1.60;99.90
24374;DHT22;12498;50.880;12.096;2024-01-15T14:51:39;1.50;1.00
24374;DHT22;12498;50.880;12.096;2024-01-15T14:54:05;2.00;1.00
24374;DHT22;12498;50.880;12.096;2024-01-15T14:56:30;1.40;1.00
24374;DHT22;12498;50.880;12.096;2024-01-15T14:58:56;1.50;29.30
24374;DHT22;12498;50.880;12.096;2024-01-15T15:01:22;1.40;74.60
24374;DHT22;12498;50.880;12.096;2024-01-15T15:03:48;1.40;99.90
24374;DHT22;12498;50.880;12.096;2024-01-15T15:06:13;1.40;99.90
24374;DHT22;12498;50.880;12.096;2024-01-15T15:08:39;1.40;99.90
24374;DHT22;12498;50.880;12.096;2024-01-15T15:11:06;1.40;99.90
24374;DHT22;12498;50.880;12.096;2024-01-15T15:13:31;1.40;99.90
24374;DHT22;12498;50.880;12.096;2024-01-15T15:15:57;1.40;99.90
24374;DHT22;12498;50.880;12.096;2024-01-15T15:18:22;1.40;99.90
24374;DHT22;12498;50.880;12.096;2024-01-15T15:20:48;1.50;99.90
24374;DHT22;12498;50.880;12.096;2024-01-15T15:23:14;1.40;99.90
24374;DHT22;12498;50.880;12.096;2024-01-15T15:25:40;1.50;99.90
24374;DHT22;12498;50.880;12.096;2024-01-15T15:28:08;1.40;99.90
24374;DHT22;12498;50.880;12.096;2024-01-15T15:30:34;1.40;99.90
24374;DHT22;12498;50.880;12.096;2024-01-15T15:32:59;1.50;99.90
24374;DHT22;12498;50.880;12.096;2024-01-15T15:35:25;1.40;99.90
24374;DHT22;12498;50.880;12.096;2024-01-15T15:37:50;1.40;99.90
24374;DHT22;12498;50.880;12.096;2024-01-15T15:40:15;1.40;99.90
24374;DHT22;12498;50.880;12.096;2024-01-15T15:42:42;1.50;99.90
24374;DHT22;12498;50.880;12.096;2024-01-15T15:45:08;1.50;99.90
24374;DHT22;12498;50.880;12.096;2024-01-15T15:47:35;1.50;99.90